sensor_id;sensor_type;location;lat;lon;timestamp;temperature;humidity
57857;DHT22;43683;48.650;9.290;2023-07-31T00:01:39;12.20;85.60
57857;DHT22;43683;48.650;9.290;2023-07-31T00:04:05;12.20;85.80
57857;DHT22;43683;48.650;9.290;2023-07-31T00:06:30;12.20;85.90
57857;DHT22;43683;48.650;9.290;2023-07-31T00:08:56;12.20;85.90
57857;DHT22;43683;48.650;9.290;2023-07-31T00:11:22;12.20;86.10
57857;DHT22;43683;48.650;9.290;2023-07-31T00:13:47;12.20;86.20
57857;DHT22;43683;48.650;9.290;2023-07-31T00:16:13;12.20;86.30
57857;DHT22;43683;48.650;9.290;2023-07-31T00:18:38;12.20;86.50
57857;DHT22;43683;48.650;9.290;2023-07-31T00:21:04;12.10;86.70
57857;DHT22;43683;48.650;9.290;2023-07-31T00:23:30;12.10;86.90
57857;DHT22;43683;48.650;9.290;2023-07-31T00:25:55;12.10;87.00
57857;DHT22;43683;48.650;9.290;2023-07-31T00:28:20;12.00;86.90
57857;DHT22;43683;48.650;9.290;2023-07-31T00:30:46;12.00;87.10
57857;DHT22;43683;48.650;9.290;2023-07-31T00:33:12;12.00;87.30
57857;DHT22;43683;48.650;9.290;2023-07-31T00:35:37;11.90;87.40
57857;DHT22;43683;48.650;9.290;2023-07-31T00:38:02;11.90;87.60
57857;DHT22;43683;48.650;9.290;2023-07-31T00:40:28;11.80;87.80
57857;DHT22;43683;48.650;9.290;2023-07-31T00:42:54;11.80;88.10
57857;DHT22;43683;48.650;9.290;2023-07-31T00:45:19;11.70;88.30
57857;DHT22;43683;48.650;9.290;2023-07-31T00:47:46;11.60;88.40
57857;DHT22;43683;48.650;9.290;2023-07-31T00:50:11;11.60;88.60
57857;DHT22;43683;48.650;9.290;2023-07-31T00:52:38;11.60;88.70
57857;DHT22;43683;48.650;9.290;2023-07-31T00:55:04;11.60;88.60
57857;DHT22;43683;48.650;9.290;2023-07-31T00:57:30;11.70;88.70
57857;DHT22;43683;48.650;9.290;2023-07-31T00:59:57;11.70;88.60
57857;DHT22;43683;48.650;9.290;2023-07-31T01:02:22;11.70;88.60
57857;DHT22;43683;48.650;9.290;2023-07-31T01:04:48;11.80;88.70
57857;DHT22;43683;48.650;9.290;2023-07-31T01:07:22;11.80;88.60
57857;DHT22;43683;48.650;9.290;2023-07-31T01:09:55;11.80;88.70
57857;DHT22;43683;48.650;9.290;2023-07-31T01:12:23;11.90;88.60
57857;DHT22;43683;48.650;9.290;2023-07-31T01:15:09;11.80;88.50
57857;DHT22;43683;48.650;9.290;2023-07-31T01:17:37;11.90;88.60
57857;DHT22;43683;48.650;9.290;2023-07-31T01:20:26;11.90;88.30
57857;DHT22;43683;48.650;9.290;2023-07-31T01:25:51;11.90;88.60
57857;DHT22;43683;48.650;9.290;2023-07-31T01:28:25;11.80;88.70
57857;DHT22;43683;48.650;9.290;2023-07-31T01:30:55;11.80;88.80
57857;DHT22;43683;48.650;9.290;2023-07-31T01:33:24;11.80;88.90
57857;DHT22;43683;48.650;9.290;2023-07-31T01:35:49;11.70;88.90
57857;DHT22;43683;48.650;9.290;2023-07-31T01:38:16;11.80;89.10
57857;DHT22;43683;48.650;9.290;2023-07-31T01:40:45;11.80;89.10
57857;DHT22;43683;48.650;9.290;2023-07-31T01:43:15;11.90;89.00
57857;DHT22;43683;48.650;9.290;2023-07-31T01:45:41;11.90;89.00
57857;DHT22;43683;48.650;9.290;2023-07-31T01:48:06;11.90;89.30
57857;DHT22;43683;48.650;9.290;2023-07-31T01:50:32;11.90;88.90
57857;DHT22;43683;48.650;9.290;2023-07-31T01:52:57;11.90;88.90
57857;DHT22;43683;48.650;9.290;2023-07-31T01:55:23;11.90;88.90
57857;DHT22;43683;48.650;9.290;2023-07-31T01:57:48;11.90;89.10
57857;DHT22;43683;48.650;9.290;2023-07-31T02:00:14;11.90;89.10
57857;DHT22;43683;48.650;9.290;2023-07-31T02:02:40;11.80;89.20
57857;DHT22;43683;48.650;9.290;2023-07-31T02:05:05;11.80;89.40
57857;DHT22;43683;48.650;9.290;2023-07-31T02:07:31;11.70;89.60
57857;DHT22;43683;48.650;9.290;2023-07-31T02:09:57;11.70;89.80
57857;DHT22;43683;48.650;9.290;2023-07-31T02:12:22;11.60;90.00
57857;DHT22;43683;48.650;9.290;2023-07-31T02:14:48;11.60;90.00
57857;DHT22;43683;48.650;9.290;2023-07-31T02:17:13;11.60;90.10
57857;DHT22;43683;48.650;9.290;2023-07-31T02:19:39;11.60;90.10
57857;DHT22;43683;48.650;9.290;2023-07-31T02:22:04;11.60;90.00
57857;DHT22;43683;48.650;9.290;2023-07-31T02:24:30;11.70;90.00
57857;DHT22;43683;48.650;9.290;2023-07-31T02:26:57;11.70;89.80
57857;DHT22;43683;48.650;9.290;2023-07-31T02:29:22;11.70;89.70
57857;DHT22;43683;48.650;9.290;2023-07-31T02:31:48;11.60;89.90
57857;DHT22;43683;48.650;9.290;2023-07-31T02:34:13;11.60;90.10
57857;DHT22;43683;48.650;9.290;2023-07-31T02:36:39;11.50;90.20
57857;DHT22;43683;48.650;9.290;2023-07-31T02:39:04;11.50;90.60
57857;DHT22;43683;48.650;9.290;2023-07-31T02:41:30;11.50;90.30
57857;DHT22;43683;48.650;9.290;2023-07-31T02:43:55;11.50;90.30
57857;DHT22;43683;48.650;9.290;2023-07-31T02:46:21;11.50;90.30
57857;DHT22;43683;48.650;9.290;2023-07-31T02:48:49;11.50;90.40
57857;DHT22;43683;48.650;9.290;2023-07-31T02:51:15;11.50;90.40
57857;DHT22;43683;48.650;9.290;2023-07-31T02:53:40;11.50;90.40
57857;DHT22;43683;48.650;9.290;2023-07-31T02:56:06;11.50;90.40
57857;DHT22;43683;48.650;9.290;2023-07-31T02:58:31;11.50;90.40
57857;DHT22;43683;48.650;9.290;2023-07-31T03:00:58;11.60;90.40
57857;DHT22;43683;48.650;9.290;2023-07-31T03:03:24;11.60;90.30
57857;DHT22;43683;48.650;9.290;2023-07-31T03:05:49;11.70;90.30
57857;DHT22;43683;48.650;9.290;2023-07-31T03:08:15;11.70;90.30
57857;DHT22;43683;48.650;9.290;2023-07-31T03:10:41;11.80;90.20
57857;DHT22;43683;48.650;9.290;2023-07-31T03:13:06;11.80;90.10
57857;DHT22;43683;48.650;9.290;2023-07-31T03:15:32;12.00;90.00
57857;DHT22;43683;48.650;9.290;2023-07-31T03:17:57;12.10;89.80
57857;DHT22;43683;48.650;9.290;2023-07-31T03:20:23;12.20;89.60
57857;DHT22;43683;48.650;9.290;2023-07-31T03:22:48;12.20;89.40
57857;DHT22;43683;48.650;9.290;2023-07-31T03:25:14;12.30;89.30
57857;DHT22;43683;48.650;9.290;2023-07-31T03:27:40;12.40;89.20
57857;DHT22;43683;48.650;9.290;2023-07-31T03:30:06;12.40;89.20
57857;DHT22;43683;48.650;9.290;2023-07-31T03:32:31;12.40;89.20
57857;DHT22;43683;48.650;9.290;2023-07-31T03:34:58;12.40;89.30
57857;DHT22;43683;48.650;9.290;2023-07-31T03:37:23;12.40;89.40
57857;DHT22;43683;48.650;9.290;2023-07-31T03:39:49;12.40;89.40
57857;DHT22;43683;48.650;9.290;2023-07-31T03:42:14;12.40;89.60
57857;DHT22;43683;48.650;9.290;2023-07-31T03:44:40;12.40;89.60
57857;DHT22;43683;48.650;9.290;2023-07-31T03:47:05;12.30;89.70
57857;DHT22;43683;48.650;9.290;2023-07-31T03:49:31;12.30;89.80
57857;DHT22;43683;48.650;9.290;2023-07-31T03:51:56;12.30;89.90
57857;DHT22;43683;48.650;9.290;2023-07-31T03:54:22;12.30;89.80
57857;DHT22;43683;48.650;9.290;2023-07-31T03:56:48;12.30;89.80
57857;DHT22;43683;48.650;9.290;2023-07-31T03:59:13;12.30;89.80
57857;DHT22;43683;48.650;9.290;2023-07-31T04:01:39;12.30;89.70
57857;DHT22;43683;48.650;9.290;2023-07-31T04:04:04;12.40;89.60
57857;DHT22;43683;48.650;9.290;2023-07-31T04:06:30;12.30;89.60
57857;DHT22;43683;48.650;9.290;2023-07-31T04:08:56;12.40;89.60
57857;DHT22;43683;48.650;9.290;2023-07-31T04:11:21;12.40;89.40
57857;DHT22;43683;48.650;9.290;2023-07-31T04:13:47;12.50;89.20
57857;DHT22;43683;48.650;9.290;2023-07-31T04:16:12;12.50;89.00
57857;DHT22;43683;48.650;9.290;2023-07-31T04:18:38;12.60;88.70
57857;DHT22;43683;48.650;9.290;2023-07-31T04:21:03;12.70;88.40
57857;DHT22;43683;48.650;9.290;2023-07-31T04:23:29;12.90;88.10
57857;DHT22;43683;48.650;9.290;2023-07-31T04:25:55;12.90;87.80
57857;DHT22;43683;48.650;9.290;2023-07-31T04:28:20;13.10;87.50
57857;DHT22;43683;48.650;9.290;2023-07-31T04:30:46;13.20;87.20
57857;DHT22;43683;48.650;9.290;2023-07-31T04:33:12;13.30;87.00
57857;DHT22;43683;48.650;9.290;2023-07-31T04:35:37;13.30;86.70
57857;DHT22;43683;48.650;9.290;2023-07-31T04:38:03;13.40;86.60
57857;DHT22;43683;48.650;9.290;2023-07-31T04:40:28;13.50;86.40
57857;DHT22;43683;48.650;9.290;2023-07-31T04:42:54;13.50;86.30
57857;DHT22;43683;48.650;9.290;2023-07-31T04:45:19;13.60;86.30
57857;DHT22;43683;48.650;9.290;2023-07-31T04:47:45;13.60;86.40
57857;DHT22;43683;48.650;9.290;2023-07-31T04:50:11;13.60;86.50
57857;DHT22;43683;48.650;9.290;2023-07-31T04:52:36;13.50;86.50
57857;DHT22;43683;48.650;9.290;2023-07-31T04:55:02;13.60;86.60
57857;DHT22;43683;48.650;9.290;2023-07-31T04:57:28;13.60;86.60
57857;DHT22;43683;48.650;9.290;2023-07-31T04:59:53;13.70;86.30
57857;DHT22;43683;48.650;9.290;2023-07-31T05:02:19;13.80;86.00
57857;DHT22;43683;48.650;9.290;2023-07-31T05:04:44;13.90;85.60
57857;DHT22;43683;48.650;9.290;2023-07-31T05:07:10;14.00;85.30
57857;DHT22;43683;48.650;9.290;2023-07-31T05:09:35;14.00;85.20
57857;DHT22;43683;48.650;9.290;2023-07-31T05:12:01;14.00;85.20
57857;DHT22;43683;48.650;9.290;2023-07-31T05:14:26;14.10;85.30
57857;DHT22;43683;48.650;9.290;2023-07-31T05:16:52;14.10;85.20
57857;DHT22;43683;48.650;9.290;2023-07-31T05:19:18;14.10;85.30
57857;DHT22;43683;48.650;9.290;2023-07-31T05:21:43;14.10;85.20
57857;DHT22;43683;48.650;9.290;2023-07-31T05:24:10;14.20;85.10
57857;DHT22;43683;48.650;9.290;2023-07-31T05:26:35;14.20;85.00
57857;DHT22;43683;48.650;9.290;2023-07-31T05:29:01;14.30;84.90
57857;DHT22;43683;48.650;9.290;2023-07-31T05:31:27;14.30;84.70
57857;DHT22;43683;48.650;9.290;2023-07-31T05:33:52;14.40;84.60
57857;DHT22;43683;48.650;9.290;2023-07-31T05:36:18;14.40;85.10
57857;DHT22;43683;48.650;9.290;2023-07-31T05:38:43;14.50;84.20
57857;DHT22;43683;48.650;9.290;2023-07-31T05:41:12;14.70;84.00
57857;DHT22;43683;48.650;9.290;2023-07-31T05:43:37;14.80;83.70
57857;DHT22;43683;48.650;9.290;2023-07-31T05:46:03;14.90;83.40
57857;DHT22;43683;48.650;9.290;2023-07-31T05:48:28;15.00;82.90
57857;DHT22;43683;48.650;9.290;2023-07-31T05:50:54;15.20;82.60
57857;DHT22;43683;48.650;9.290;2023-07-31T05:53:19;15.40;82.10
57857;DHT22;43683;48.650;9.290;2023-07-31T05:55:45;15.60;81.50
57857;DHT22;43683;48.650;9.290;2023-07-31T05:58:11;15.80;80.90
57857;DHT22;43683;48.650;9.290;2023-07-31T06:00:36;16.10;80.10
57857;DHT22;43683;48.650;9.290;2023-07-31T06:03:02;16.40;79.30
57857;DHT22;43683;48.650;9.290;2023-07-31T06:05:27;16.80;78.50
57857;DHT22;43683;48.650;9.290;2023-07-31T06:07:55;17.40;76.90
57857;DHT22;43683;48.650;9.290;2023-07-31T06:10:20;18.10;74.40
57857;DHT22;43683;48.650;9.290;2023-07-31T06:12:46;18.80;72.00
57857;DHT22;43683;48.650;9.290;2023-07-31T06:15:11;18.80;72.00
57857;DHT22;43683;48.650;9.290;2023-07-31T06:17:37;19.10;71.40
57857;DHT22;43683;48.650;9.290;2023-07-31T06:20:03;19.30;71.00
57857;DHT22;43683;48.650;9.290;2023-07-31T06:22:30;19.30;71.30
57857;DHT22;43683;48.650;9.290;2023-07-31T06:24:56;19.10;72.10
57857;DHT22;43683;48.650;9.290;2023-07-31T06:27:21;19.00;72.90
57857;DHT22;43683;48.650;9.290;2023-07-31T06:29:47;19.00;73.60
57857;DHT22;43683;48.650;9.290;2023-07-31T06:32:13;19.00;73.60
57857;DHT22;43683;48.650;9.290;2023-07-31T06:34:39;18.90;73.70
57857;DHT22;43683;48.650;9.290;2023-07-31T06:37:05;19.10;73.30
57857;DHT22;43683;48.650;9.290;2023-07-31T06:39:30;19.40;72.70
57857;DHT22;43683;48.650;9.290;2023-07-31T06:41:56;19.70;72.00
57857;DHT22;43683;48.650;9.290;2023-07-31T06:44:21;20.00;71.20
57857;DHT22;43683;48.650;9.290;2023-07-31T06:46:47;20.10;71.00
57857;DHT22;43683;48.650;9.290;2023-07-31T06:49:12;20.20;70.80
57857;DHT22;43683;48.650;9.290;2023-07-31T06:51:40;20.20;70.80
57857;DHT22;43683;48.650;9.290;2023-07-31T06:54:06;20.10;70.80
57857;DHT22;43683;48.650;9.290;2023-07-31T06:56:31;20.10;70.80
57857;DHT22;43683;48.650;9.290;2023-07-31T06:58:57;20.20;70.80
57857;DHT22;43683;48.650;9.290;2023-07-31T07:01:22;20.30;70.60
57857;DHT22;43683;48.650;9.290;2023-07-31T07:03:48;20.50;70.20
57857;DHT22;43683;48.650;9.290;2023-07-31T07:06:16;20.70;69.60
57857;DHT22;43683;48.650;9.290;2023-07-31T07:08:42;20.70;69.30
57857;DHT22;43683;48.650;9.290;2023-07-31T07:11:07;20.60;69.20
57857;DHT22;43683;48.650;9.290;2023-07-31T07:13:33;20.60;69.10
57857;DHT22;43683;48.650;9.290;2023-07-31T07:15:59;20.80;68.90
57857;DHT22;43683;48.650;9.290;2023-07-31T07:18:24;20.90;68.30
57857;DHT22;43683;48.650;9.290;2023-07-31T07:20:51;21.00;67.90
57857;DHT22;43683;48.650;9.290;2023-07-31T07:23:18;21.00;67.40
57857;DHT22;43683;48.650;9.290;2023-07-31T07:25:44;21.20;67.10
57857;DHT22;43683;48.650;9.290;2023-07-31T07:28:10;21.30;66.50
57857;DHT22;43683;48.650;9.290;2023-07-31T07:30:36;21.50;65.90
57857;DHT22;43683;48.650;9.290;2023-07-31T07:33:01;21.50;65.50
57857;DHT22;43683;48.650;9.290;2023-07-31T07:35:27;21.50;65.50
57857;DHT22;43683;48.650;9.290;2023-07-31T07:37:53;21.40;65.10
57857;DHT22;43683;48.650;9.290;2023-07-31T07:40:19;21.40;64.70
57857;DHT22;43683;48.650;9.290;2023-07-31T07:42:45;21.20;64.60
57857;DHT22;43683;48.650;9.290;2023-07-31T07:45:10;21.10;64.50
57857;DHT22;43683;48.650;9.290;2023-07-31T07:47:36;20.90;64.60
57857;DHT22;43683;48.650;9.290;2023-07-31T07:50:01;20.80;64.70
57857;DHT22;43683;48.650;9.290;2023-07-31T07:52:27;20.60;65.00
57857;DHT22;43683;48.650;9.290;2023-07-31T07:54:53;20.90;64.70
57857;DHT22;43683;48.650;9.290;2023-07-31T07:57:18;21.50;63.80
57857;DHT22;43683;48.650;9.290;2023-07-31T07:59:44;22.10;62.70
57857;DHT22;43683;48.650;9.290;2023-07-31T08:02:10;22.60;61.70
57857;DHT22;43683;48.650;9.290;2023-07-31T08:04:35;23.00;61.00
57857;DHT22;43683;48.650;9.290;2023-07-31T08:07:01;23.10;60.50
57857;DHT22;43683;48.650;9.290;2023-07-31T08:09:26;23.00;60.40
57857;DHT22;43683;48.650;9.290;2023-07-31T08:11:52;23.40;59.60
57857;DHT22;43683;48.650;9.290;2023-07-31T08:14:17;24.00;58.30
57857;DHT22;43683;48.650;9.290;2023-07-31T08:16:43;24.70;57.10
57857;DHT22;43683;48.650;9.290;2023-07-31T08:19:08;25.00;56.00
57857;DHT22;43683;48.650;9.290;2023-07-31T08:21:34;25.00;55.90
57857;DHT22;43683;48.650;9.290;2023-07-31T08:23:59;24.30;56.70
57857;DHT22;43683;48.650;9.290;2023-07-31T08:26:25;23.90;57.40
57857;DHT22;43683;48.650;9.290;2023-07-31T08:28:51;23.50;57.80
57857;DHT22;43683;48.650;9.290;2023-07-31T08:31:16;23.30;57.70
57857;DHT22;43683;48.650;9.290;2023-07-31T08:33:42;23.30;57.50
57857;DHT22;43683;48.650;9.290;2023-07-31T08:36:07;23.60;57.10
57857;DHT22;43683;48.650;9.290;2023-07-31T08:38:33;23.70;56.50
57857;DHT22;43683;48.650;9.290;2023-07-31T08:40:59;23.70;56.30
57857;DHT22;43683;48.650;9.290;2023-07-31T08:43:27;23.80;55.90
57857;DHT22;43683;48.650;9.290;2023-07-31T08:45:53;23.70;55.50
57857;DHT22;43683;48.650;9.290;2023-07-31T08:48:20;23.80;55.50
57857;DHT22;43683;48.650;9.290;2023-07-31T08:50:46;24.00;55.10
57857;DHT22;43683;48.650;9.290;2023-07-31T08:53:11;24.10;54.60
57857;DHT22;43683;48.650;9.290;2023-07-31T08:55:38;24.10;54.40
57857;DHT22;43683;48.650;9.290;2023-07-31T08:58:04;24.30;54.10
57857;DHT22;43683;48.650;9.290;2023-07-31T09:00:32;24.40;53.90
57857;DHT22;43683;48.650;9.290;2023-07-31T09:03:03;24.50;53.40
57857;DHT22;43683;48.650;9.290;2023-07-31T09:05:30;24.40;53.10
57857;DHT22;43683;48.650;9.290;2023-07-31T09:07:56;24.40;53.30
57857;DHT22;43683;48.650;9.290;2023-07-31T09:10:23;24.90;52.50
57857;DHT22;43683;48.650;9.290;2023-07-31T09:12:50;24.80;52.40
57857;DHT22;43683;48.650;9.290;2023-07-31T09:15:16;24.90;52.20
57857;DHT22;43683;48.650;9.290;2023-07-31T09:17:42;25.10;51.70
57857;DHT22;43683;48.650;9.290;2023-07-31T09:20:19;25.00;51.70
57857;DHT22;43683;48.650;9.290;2023-07-31T09:22:45;24.70;51.60
57857;DHT22;43683;48.650;9.290;2023-07-31T09:25:22;24.50;51.90
57857;DHT22;43683;48.650;9.290;2023-07-31T09:27:49;24.60;51.80
57857;DHT22;43683;48.650;9.290;2023-07-31T09:30:16;24.50;51.80
57857;DHT22;43683;48.650;9.290;2023-07-31T09:32:43;24.80;51.20
57857;DHT22;43683;48.650;9.290;2023-07-31T09:37:40;24.80;51.70
57857;DHT22;43683;48.650;9.290;2023-07-31T09:40:06;24.50;51.60
57857;DHT22;43683;48.650;9.290;2023-07-31T09:42:34;24.20;52.40
57857;DHT22;43683;48.650;9.290;2023-07-31T09:45:09;23.80;51.60
57857;DHT22;43683;48.650;9.290;2023-07-31T09:47:35;23.80;51.40
57857;DHT22;43683;48.650;9.290;2023-07-31T09:50:00;24.30;50.70
57857;DHT22;43683;48.650;9.290;2023-07-31T09:52:26;24.40;50.50
57857;DHT22;43683;48.650;9.290;2023-07-31T09:54:55;24.40;50.30
57857;DHT22;43683;48.650;9.290;2023-07-31T09:57:22;24.40;50.20
57857;DHT22;43683;48.650;9.290;2023-07-31T09:59:48;24.30;50.20
57857;DHT22;43683;48.650;9.290;2023-07-31T10:02:21;24.30;50.30
57857;DHT22;43683;48.650;9.290;2023-07-31T10:04:49;24.40;50.10
57857;DHT22;43683;48.650;9.290;2023-07-31T10:07:17;24.40;50.40
57857;DHT22;43683;48.650;9.290;2023-07-31T10:09:44;24.80;50.40
57857;DHT22;43683;48.650;9.290;2023-07-31T10:12:12;24.80;50.30
57857;DHT22;43683;48.650;9.290;2023-07-31T10:14:41;24.60;50.30
57857;DHT22;43683;48.650;9.290;2023-07-31T10:17:08;24.30;51.00
57857;DHT22;43683;48.650;9.290;2023-07-31T10:19:34;24.20;50.60
57857;DHT22;43683;48.650;9.290;2023-07-31T10:22:00;24.00;51.00
57857;DHT22;43683;48.650;9.290;2023-07-31T10:24:28;23.80;51.40
57857;DHT22;43683;48.650;9.290;2023-07-31T10:26:58;23.60;51.80
57857;DHT22;43683;48.650;9.290;2023-07-31T10:29:25;23.60;52.50
57857;DHT22;43683;48.650;9.290;2023-07-31T10:31:51;24.30;51.80
57857;DHT22;43683;48.650;9.290;2023-07-31T10:34:17;24.90;51.10
57857;DHT22;43683;48.650;9.290;2023-07-31T10:36:43;25.30;50.60
57857;DHT22;43683;48.650;9.290;2023-07-31T10:39:35;25.50;50.00
57857;DHT22;43683;48.650;9.290;2023-07-31T10:42:13;25.80;49.00
57857;DHT22;43683;48.650;9.290;2023-07-31T10:44:44;26.10;48.50
57857;DHT22;43683;48.650;9.290;2023-07-31T10:47:10;26.30;48.70
57857;DHT22;43683;48.650;9.290;2023-07-31T10:49:39;26.60;48.20
57857;DHT22;43683;48.650;9.290;2023-07-31T10:52:05;26.60;47.90
57857;DHT22;43683;48.650;9.290;2023-07-31T10:54:30;26.60;48.00
57857;DHT22;43683;48.650;9.290;2023-07-31T10:56:56;26.10;48.20
57857;DHT22;43683;48.650;9.290;2023-07-31T10:59:26;25.90;48.20
57857;DHT22;43683;48.650;9.290;2023-07-31T11:01:55;25.90;48.10
57857;DHT22;43683;48.650;9.290;2023-07-31T11:04:26;26.30;48.00
57857;DHT22;43683;48.650;9.290;2023-07-31T11:07:00;26.40;46.90
57857;DHT22;43683;48.650;9.290;2023-07-31T11:09:30;26.40;46.50
57857;DHT22;43683;48.650;9.290;2023-07-31T11:11:57;26.80;46.30
57857;DHT22;43683;48.650;9.290;2023-07-31T11:14:23;26.50;46.00
57857;DHT22;43683;48.650;9.290;2023-07-31T11:16:51;26.00;46.30
57857;DHT22;43683;48.650;9.290;2023-07-31T11:19:26;25.70;46.50
57857;DHT22;43683;48.650;9.290;2023-07-31T11:21:52;25.50;46.50
57857;DHT22;43683;48.650;9.290;2023-07-31T11:24:18;25.60;46.50
57857;DHT22;43683;48.650;9.290;2023-07-31T11:26:51;25.70;46.30
57857;DHT22;43683;48.650;9.290;2023-07-31T11:29:18;25.60;46.10
57857;DHT22;43683;48.650;9.290;2023-07-31T11:31:44;25.40;46.20
57857;DHT22;43683;48.650;9.290;2023-07-31T11:34:10;25.30;46.70
57857;DHT22;43683;48.650;9.290;2023-07-31T11:36:35;25.30;46.70
57857;DHT22;43683;48.650;9.290;2023-07-31T11:39:08;25.10;46.60
57857;DHT22;43683;48.650;9.290;2023-07-31T11:41:33;25.00;46.80
57857;DHT22;43683;48.650;9.290;2023-07-31T11:44:00;24.80;47.10
57857;DHT22;43683;48.650;9.290;2023-07-31T11:46:26;24.60;47.30
57857;DHT22;43683;48.650;9.290;2023-07-31T11:48:51;24.70;47.30
57857;DHT22;43683;48.650;9.290;2023-07-31T11:51:19;24.70;47.40
57857;DHT22;43683;48.650;9.290;2023-07-31T11:53:53;24.70;47.60
57857;DHT22;43683;48.650;9.290;2023-07-31T11:56:21;24.50;47.70
57857;DHT22;43683;48.650;9.290;2023-07-31T11:58:55;24.30;48.10
57857;DHT22;43683;48.650;9.290;2023-07-31T12:01:23;24.20;48.30
57857;DHT22;43683;48.650;9.290;2023-07-31T12:03:52;24.00;48.50
57857;DHT22;43683;48.650;9.290;2023-07-31T12:06:18;24.00;49.40
57857;DHT22;43683;48.650;9.290;2023-07-31T12:08:46;24.00;48.70
57857;DHT22;43683;48.650;9.290;2023-07-31T12:11:11;24.00;48.60
57857;DHT22;43683;48.650;9.290;2023-07-31T12:13:38;24.10;48.40
57857;DHT22;43683;48.650;9.290;2023-07-31T12:16:04;24.10;48.30
57857;DHT22;43683;48.650;9.290;2023-07-31T12:18:34;24.10;48.40
57857;DHT22;43683;48.650;9.290;2023-07-31T12:21:02;23.90;48.80
57857;DHT22;43683;48.650;9.290;2023-07-31T12:23:33;23.70;49.30
57857;DHT22;43683;48.650;9.290;2023-07-31T12:28:36;23.30;50.30
57857;DHT22;43683;48.650;9.290;2023-07-31T12:31:05;23.20;50.40
57857;DHT22;43683;48.650;9.290;2023-07-31T12:33:33;23.20;50.30
57857;DHT22;43683;48.650;9.290;2023-07-31T12:36:02;23.30;50.10
57857;DHT22;43683;48.650;9.290;2023-07-31T12:38:27;23.70;49.80
57857;DHT22;43683;48.650;9.290;2023-07-31T12:40:53;23.80;49.40
57857;DHT22;43683;48.650;9.290;2023-07-31T12:43:18;23.80;49.50
57857;DHT22;43683;48.650;9.290;2023-07-31T12:45:44;23.60;49.60
57857;DHT22;43683;48.650;9.290;2023-07-31T12:48:10;23.30;50.20
57857;DHT22;43683;48.650;9.290;2023-07-31T12:50:35;23.20;50.50
57857;DHT22;43683;48.650;9.290;2023-07-31T12:53:05;23.00;50.90
57857;DHT22;43683;48.650;9.290;2023-07-31T12:55:31;22.80;51.20
57857;DHT22;43683;48.650;9.290;2023-07-31T12:57:58;22.90;51.40
57857;DHT22;43683;48.650;9.290;2023-07-31T13:00:23;22.90;51.50
57857;DHT22;43683;48.650;9.290;2023-07-31T13:02:49;22.90;51.50
57857;DHT22;43683;48.650;9.290;2023-07-31T13:05:14;23.10;51.20
57857;DHT22;43683;48.650;9.290;2023-07-31T13:07:40;23.30;50.70
57857;DHT22;43683;48.650;9.290;2023-07-31T13:10:07;23.40;50.50
57857;DHT22;43683;48.650;9.290;2023-07-31T13:12:33;23.50;50.50
57857;DHT22;43683;48.650;9.290;2023-07-31T13:14:59;23.60;50.60
57857;DHT22;43683;48.650;9.290;2023-07-31T13:17:25;23.60;50.60
57857;DHT22;43683;48.650;9.290;2023-07-31T13:19:50;23.50;50.50
57857;DHT22;43683;48.650;9.290;2023-07-31T13:22:16;23.50;50.80
57857;DHT22;43683;48.650;9.290;2023-07-31T13:24:41;23.60;50.80
57857;DHT22;43683;48.650;9.290;2023-07-31T13:27:07;23.70;50.60
57857;DHT22;43683;48.650;9.290;2023-07-31T13:29:32;23.90;50.40
57857;DHT22;43683;48.650;9.290;2023-07-31T13:31:58;24.30;50.00
57857;DHT22;43683;48.650;9.290;2023-07-31T13:34:23;24.50;49.60
57857;DHT22;43683;48.650;9.290;2023-07-31T13:36:49;24.40;49.30
57857;DHT22;43683;48.650;9.290;2023-07-31T13:39:14;24.10;49.80
57857;DHT22;43683;48.650;9.290;2023-07-31T13:41:40;23.80;50.40
57857;DHT22;43683;48.650;9.290;2023-07-31T13:44:06;23.70;50.60
57857;DHT22;43683;48.650;9.290;2023-07-31T13:46:31;23.60;50.70
57857;DHT22;43683;48.650;9.290;2023-07-31T13:48:58;23.60;50.80
57857;DHT22;43683;48.650;9.290;2023-07-31T13:51:25;23.50;50.90
57857;DHT22;43683;48.650;9.290;2023-07-31T13:53:50;23.40;51.10
57857;DHT22;43683;48.650;9.290;2023-07-31T13:56:16;23.40;51.30
57857;DHT22;43683;48.650;9.290;2023-07-31T13:58:41;23.40;51.40
57857;DHT22;43683;48.650;9.290;2023-07-31T14:01:07;23.20;51.50
57857;DHT22;43683;48.650;9.290;2023-07-31T14:03:32;23.20;51.70
57857;DHT22;43683;48.650;9.290;2023-07-31T14:05:58;23.10;51.80
57857;DHT22;43683;48.650;9.290;2023-07-31T14:08:24;23.10;51.90
57857;DHT22;43683;48.650;9.290;2023-07-31T14:10:50;23.20;51.80
57857;DHT22;43683;48.650;9.290;2023-07-31T14:13:15;23.30;52.40
57857;DHT22;43683;48.650;9.290;2023-07-31T14:15:44;23.30;51.50
57857;DHT22;43683;48.650;9.290;2023-07-31T14:18:09;23.40;51.50
57857;DHT22;43683;48.650;9.290;2023-07-31T14:20:35;23.50;51.70
57857;DHT22;43683;48.650;9.290;2023-07-31T14:23:02;23.60;51.60
57857;DHT22;43683;48.650;9.290;2023-07-31T14:25:28;23.50;51.70
57857;DHT22;43683;48.650;9.290;2023-07-31T14:27:53;23.40;51.80
57857;DHT22;43683;48.650;9.290;2023-07-31T14:30:19;23.30;52.00
57857;DHT22;43683;48.650;9.290;2023-07-31T14:32:45;23.20;52.10
57857;DHT22;43683;48.650;9.290;2023-07-31T14:35:11;23.10;52.20
57857;DHT22;43683;48.650;9.290;2023-07-31T14:37:41;23.20;52.10
57857;DHT22;43683;48.650;9.290;2023-07-31T14:40:10;23.30;51.80
57857;DHT22;43683;48.650;9.290;2023-07-31T14:42:37;23.30;51.50
57857;DHT22;43683;48.650;9.290;2023-07-31T14:45:04;23.20;51.50
57857;DHT22;43683;48.650;9.290;2023-07-31T14:47:29;23.10;51.60
57857;DHT22;43683;48.650;9.290;2023-07-31T14:49:56;23.10;52.00
57857;DHT22;43683;48.650;9.290;2023-07-31T14:52:22;23.00;51.90
57857;DHT22;43683;48.650;9.290;2023-07-31T14:54:47;23.10;51.70
57857;DHT22;43683;48.650;9.290;2023-07-31T14:57:13;23.10;51.60
57857;DHT22;43683;48.650;9.290;2023-07-31T14:59:38;23.10;51.40
57857;DHT22;43683;48.650;9.290;2023-07-31T15:02:04;23.10;51.20
57857;DHT22;43683;48.650;9.290;2023-07-31T15:04:30;23.10;51.20
57857;DHT22;43683;48.650;9.290;2023-07-31T15:06:55;23.10;51.40
57857;DHT22;43683;48.650;9.290;2023-07-31T15:09:21;23.00;51.60
57857;DHT22;43683;48.650;9.290;2023-07-31T15:11:46;22.90;51.50
57857;DHT22;43683;48.650;9.290;2023-07-31T15:14:12;22.90;51.60
57857;DHT22;43683;48.650;9.290;2023-07-31T15:16:38;23.00;51.60
57857;DHT22;43683;48.650;9.290;2023-07-31T15:19:03;23.00;51.40
57857;DHT22;43683;48.650;9.290;2023-07-31T15:21:29;23.10;51.30
57857;DHT22;43683;48.650;9.290;2023-07-31T15:23:55;23.10;51.40
57857;DHT22;43683;48.650;9.290;2023-07-31T15:26:20;23.10;51.60
57857;DHT22;43683;48.650;9.290;2023-07-31T15:28:49;23.00;51.60
57857;DHT22;43683;48.650;9.290;2023-07-31T15:31:15;23.10;51.60
57857;DHT22;43683;48.650;9.290;2023-07-31T15:33:40;23.20;51.40